createdAt,value
2022-10-13T00:00:54.194Z,14.43
2022-10-13T00:03:23.367Z,13.23
2022-10-13T00:05:51.711Z,13.63
2022-10-13T00:08:22.085Z,12.43
2022-10-13T00:10:53.734Z,14.20
2022-10-13T00:13:21.488Z,10.20
2022-10-13T00:15:49.613Z,12.25
2022-10-13T00:18:18.076Z,14.27
2022-10-13T00:20:49.197Z,11.95
2022-10-13T00:23:17.355Z,10.45
2022-10-13T00:25:46.423Z,12.38
2022-10-13T00:28:15.623Z,15.25
2022-10-13T00:30:43.404Z,12.40
2022-10-13T00:33:11.495Z,12.82
2022-10-13T00:35:41.891Z,15.40
2022-10-13T00:38:11.568Z,12.27
2022-10-13T00:40:46.894Z,13.63
2022-10-13T00:43:17.983Z,13.32
2022-10-13T00:45:46.724Z,11.65
2022-10-13T00:48:14.436Z,13.32
2022-10-13T00:50:43.428Z,12.98
2022-10-13T00:53:12.984Z,14.13
2022-10-13T00:55:42.247Z,12.48
2022-10-13T00:58:11.955Z,12.80
2022-10-13T01:00:39.829Z,12.52
2022-10-13T01:03:07.550Z,12.88
2022-10-13T01:05:35.412Z,12.98
2022-10-13T01:08:03.728Z,15.93
2022-10-13T01:10:41.795Z,14.20
2022-10-13T01:13:14.552Z,15.88
2022-10-13T01:15:45.742Z,13.13
2022-10-13T01:18:17.485Z,15.32
2022-10-13T01:21:17.185Z,13.18
2022-10-13T01:24:14.159Z,11.30
2022-10-13T01:27:14.919Z,14.60
2022-10-13T01:30:11.711Z,12.48
2022-10-13T01:32:49.262Z,13.40
2022-10-13T01:35:20.837Z,14.50
2022-10-13T01:37:50.924Z,12.52
2022-10-13T01:40:24.910Z,15.00
2022-10-13T01:42:57.940Z,13.63
2022-10-13T01:45:31.507Z,13.93
2022-10-13T01:47:59.850Z,12.68
2022-10-13T01:50:27.780Z,16.77
2022-10-13T01:52:55.829Z,12.25
2022-10-13T01:55:23.766Z,14.57
2022-10-13T01:57:51.420Z,15.95
2022-10-13T02:00:21.009Z,11.98
2022-10-13T02:02:57.019Z,12.10
2022-10-13T02:05:28.262Z,11.57
2022-10-13T02:08:02.626Z,14.27
2022-10-13T02:10:35.432Z,11.45
2022-10-13T02:13:04.758Z,15.20
2022-10-13T02:15:36.100Z,15.98
2022-10-13T02:18:05.802Z,12.88
2022-10-13T02:20:33.793Z,16.13
2022-10-13T02:23:03.927Z,12.77
2022-10-13T02:25:32.182Z,14.93
2022-10-13T02:28:01.196Z,16.63
2022-10-13T02:30:31.279Z,14.60
2022-10-13T02:32:58.965Z,13.43
2022-10-13T02:35:28.072Z,13.05
2022-10-13T02:37:55.674Z,14.07
2022-10-13T02:40:23.404Z,15.57
2022-10-13T02:42:51.089Z,15.18
2022-10-13T02:45:19.223Z,15.87
2022-10-13T02:47:46.898Z,15.60
2022-10-13T02:50:14.659Z,13.23
2022-10-13T02:52:43.709Z,13.75
2022-10-13T02:55:11.449Z,13.90
2022-10-13T02:57:39.158Z,14.45
2022-10-13T03:00:08.188Z,14.32
2022-10-13T03:02:35.946Z,15.40
2022-10-13T03:05:03.632Z,15.45
2022-10-13T03:07:31.294Z,16.33
2022-10-13T03:10:00.379Z,14.68
2022-10-13T03:12:28.122Z,16.40
2022-10-13T03:14:55.719Z,15.52
2022-10-13T03:17:23.427Z,17.67
2022-10-13T03:19:51.224Z,18.42
2022-10-13T03:22:19.306Z,14.83
2022-10-13T03:24:47.116Z,15.93
2022-10-13T03:27:16.143Z,17.58
2022-10-13T03:29:43.758Z,14.15
2022-10-13T03:32:11.675Z,16.57
2022-10-13T03:34:39.343Z,14.75
2022-10-13T03:37:07.393Z,13.70
2022-10-13T03:39:35.058Z,15.18
2022-10-13T03:42:02.924Z,16.10
2022-10-13T03:44:31.978Z,15.73
2022-10-13T03:46:59.667Z,15.98
2022-10-13T03:49:27.339Z,14.13
2022-10-13T03:51:54.964Z,14.65
2022-10-13T03:54:22.724Z,14.87
2022-10-13T03:56:50.373Z,14.60
2022-10-13T03:59:18.594Z,15.63
2022-10-13T04:01:47.700Z,14.55
2022-10-13T04:04:15.564Z,15.32
2022-10-13T04:06:43.426Z,15.30
2022-10-13T04:09:11.117Z,13.23
2022-10-13T04:11:38.758Z,13.45
2022-10-13T04:14:06.422Z,14.50
2022-10-13T04:16:34.147Z,14.05
2022-10-13T04:19:05.231Z,15.15
2022-10-13T04:21:34.448Z,14.73
2022-10-13T04:24:03.008Z,15.15
2022-10-13T04:26:32.660Z,15.27
2022-10-13T04:29:01.071Z,13.18
2022-10-13T04:31:30.394Z,15.13
2022-10-13T04:33:58.759Z,15.90
2022-10-13T04:36:28.899Z,15.20
2022-10-13T04:38:56.702Z,14.63
2022-10-13T04:41:25.754Z,17.67
2022-10-13T04:43:54.566Z,15.20
2022-10-13T04:46:24.210Z,17.60
2022-10-13T04:48:52.081Z,16.10
2022-10-13T04:51:22.117Z,14.85
2022-10-13T04:53:55.443Z,18.67
2022-10-13T04:56:23.039Z,14.05
2022-10-13T04:58:50.702Z,15.93
2022-10-13T05:01:22.078Z,18.33
2022-10-13T05:03:52.071Z,16.33
2022-10-13T05:06:21.530Z,19.83
2022-10-13T05:08:49.272Z,15.30
2022-10-13T05:11:19.961Z,16.45
2022-10-13T05:13:47.939Z,16.92
2022-10-13T05:16:17.065Z,15.25
2022-10-13T05:18:44.963Z,18.92
2022-10-13T05:21:14.295Z,16.23
2022-10-13T05:23:42.824Z,18.08
2022-10-13T05:26:12.877Z,17.52
2022-10-13T05:28:42.310Z,20.00
2022-10-13T05:31:11.618Z,15.50
2022-10-13T05:33:39.751Z,16.67
2022-10-13T05:36:08.994Z,18.33
2022-10-13T05:38:36.735Z,15.57
2022-10-13T05:41:05.459Z,16.60
2022-10-13T05:43:33.457Z,17.85
2022-10-13T05:46:02.795Z,16.40
2022-10-13T05:48:30.829Z,18.15
2022-10-13T05:51:00.547Z,18.25
2022-10-13T05:53:29.733Z,15.57
2022-10-13T05:56:05.953Z,17.50
2022-10-13T05:58:34.127Z,19.10
2022-10-13T06:01:03.320Z,17.33
2022-10-13T06:03:31.085Z,18.63
2022-10-13T06:05:58.798Z,16.58
2022-10-13T06:08:26.429Z,18.88
2022-10-13T06:10:54.237Z,18.25
2022-10-13T06:13:21.816Z,16.50
2022-10-13T06:15:49.455Z,16.05
2022-10-13T06:18:18.506Z,18.30
2022-10-13T06:20:46.144Z,16.95
2022-10-13T06:23:13.839Z,16.45
2022-10-13T06:25:48.248Z,17.45
2022-10-13T06:28:16.363Z,19.55
2022-10-13T06:30:46.958Z,17.95
2022-10-13T06:33:14.713Z,17.90
2022-10-13T06:35:43.698Z,16.35
2022-10-13T06:38:11.605Z,18.40
2022-10-13T06:40:39.293Z,21.27
2022-10-13T06:43:07.048Z,21.02
2022-10-13T06:45:34.617Z,19.77
2022-10-13T06:48:02.270Z,17.37
2022-10-13T06:50:32.129Z,17.38
2022-10-13T06:53:01.195Z,19.60
2022-10-13T06:55:28.835Z,19.42
2022-10-13T06:57:56.877Z,18.42
2022-10-13T07:00:24.551Z,18.45
2022-10-13T07:02:53.130Z,16.63
2022-10-13T07:05:20.847Z,18.02
2022-10-13T07:07:48.536Z,17.08
2022-10-13T07:10:17.812Z,17.70
2022-10-13T07:12:45.667Z,19.02
2022-10-13T07:15:13.343Z,18.17
2022-10-13T07:17:41.071Z,19.45
2022-10-13T07:20:09.497Z,18.42
2022-10-13T07:22:37.489Z,17.93
2022-10-13T07:25:05.627Z,18.90
2022-10-13T07:27:34.587Z,19.08
2022-10-13T07:30:02.240Z,18.05
2022-10-13T07:32:30.129Z,20.40
2022-10-13T07:34:57.947Z,19.23
2022-10-13T07:37:26.220Z,19.77
2022-10-13T07:39:53.916Z,18.10
2022-10-13T07:42:21.598Z,19.60
2022-10-13T07:44:50.655Z,18.13
2022-10-13T07:47:18.679Z,16.73
2022-10-13T07:49:47.090Z,19.80
2022-10-13T07:52:14.854Z,18.90
2022-10-13T07:54:42.786Z,19.80
2022-10-13T07:57:10.554Z,18.50
2022-10-13T07:59:38.340Z,20.00
2022-10-13T08:02:07.622Z,17.52
2022-10-13T08:04:35.964Z,17.45
2022-10-13T08:07:04.318Z,21.63
2022-10-13T08:09:32.181Z,18.70
2022-10-13T08:12:00.961Z,18.77
2022-10-13T08:14:29.954Z,20.40
2022-10-13T08:16:57.922Z,18.73
2022-10-13T08:19:28.298Z,17.83
2022-10-13T08:21:58.577Z,20.80
2022-10-13T08:24:28.209Z,20.65
2022-10-13T08:26:55.813Z,20.17
2022-10-13T08:29:24.282Z,18.60
2022-10-13T08:31:53.195Z,19.70
2022-10-13T08:34:21.904Z,19.30
2022-10-13T08:36:53.023Z,22.42
2022-10-13T08:39:21.352Z,21.70
2022-10-13T08:41:49.275Z,20.77
2022-10-13T08:44:59.567Z,19.33
2022-10-13T08:47:13.342Z,18.67
2022-10-13T08:49:42.351Z,19.58
2022-10-13T08:52:18.356Z,19.60
2022-10-13T08:54:46.662Z,16.60
2022-10-13T08:57:14.573Z,19.05
2022-10-13T08:59:42.305Z,19.80
2022-10-13T09:02:14.752Z,20.13
2022-10-13T09:04:46.571Z,20.90
2022-10-13T09:07:18.135Z,21.23
2022-10-13T09:09:46.053Z,20.47
2022-10-13T09:12:15.667Z,20.80
2022-10-13T09:14:43.343Z,21.88
2022-10-13T09:17:16.809Z,19.80
2022-10-13T09:19:45.340Z,20.33
2022-10-13T09:22:24.059Z,20.63
2022-10-13T09:25:09.285Z,18.33
2022-10-13T09:27:43.583Z,20.10
2022-10-13T09:30:33.688Z,21.25
2022-10-13T09:33:20.595Z,20.30
2022-10-13T09:35:50.416Z,20.48
2022-10-13T09:38:21.391Z,18.00
2022-10-13T09:40:59.268Z,19.92
2022-10-13T09:43:33.799Z,20.58
2022-10-13T09:46:02.834Z,19.55
2022-10-13T09:48:32.678Z,19.58
2022-10-13T09:51:00.408Z,20.52
2022-10-13T09:53:33.989Z,19.75
2022-10-13T09:56:18.150Z,18.83
2022-10-13T09:58:50.367Z,16.35
2022-10-13T10:01:22.830Z,22.33
2022-10-13T10:03:50.675Z,19.10
2022-10-13T10:06:19.219Z,21.02
2022-10-13T10:09:09.143Z,21.33
2022-10-13T10:11:41.792Z,22.17
2022-10-13T10:14:17.058Z,19.13
2022-10-13T10:16:47.770Z,18.73
2022-10-13T10:19:21.604Z,19.55
2022-10-13T10:21:51.276Z,21.02
2022-10-13T10:24:27.008Z,18.55
2022-10-13T10:26:57.482Z,18.87
2022-10-13T10:29:30.706Z,19.23
2022-10-13T10:32:20.984Z,16.58
2022-10-13T10:34:52.244Z,22.48
2022-10-13T10:37:25.491Z,20.80
2022-10-13T10:40:01.338Z,20.23
2022-10-13T10:42:49.727Z,21.48
2022-10-13T10:45:23.621Z,20.27
2022-10-13T10:47:53.397Z,18.47
2022-10-13T10:50:21.954Z,19.83
2022-10-13T10:52:56.169Z,19.47
2022-10-13T10:55:31.533Z,20.07
2022-10-13T10:58:15.048Z,19.63
2022-10-13T11:00:46.720Z,17.58
2022-10-13T11:03:23.359Z,20.30
2022-10-13T11:06:02.897Z,18.58
2022-10-13T11:08:32.323Z,17.98
2022-10-13T11:11:35.045Z,17.67
2022-10-13T11:14:24.442Z,18.70
2022-10-13T11:17:25.106Z,17.37
2022-10-13T11:19:53.173Z,20.77
2022-10-13T11:22:23.883Z,21.52
2022-10-13T11:25:20.529Z,18.45
2022-10-13T11:27:49.855Z,20.00
2022-10-13T11:30:57.445Z,17.07
2022-10-13T11:33:36.465Z,16.75
2022-10-13T11:36:43.940Z,18.50
2022-10-13T11:39:36.583Z,17.73
2022-10-13T11:42:12.741Z,19.13
2022-10-13T11:44:51.806Z,18.15
2022-10-13T11:47:31.602Z,17.10
2022-10-13T11:50:05.211Z,16.65
2022-10-13T11:52:55.088Z,16.52
2022-10-13T11:55:34.493Z,15.05
2022-10-13T11:58:16.610Z,16.27
2022-10-13T12:00:56.818Z,17.45
2022-10-13T12:03:28.200Z,17.55
2022-10-13T12:05:59.168Z,18.13
2022-10-13T12:08:27.224Z,15.57
2022-10-13T12:10:58.182Z,15.70
2022-10-13T12:13:27.420Z,14.15
2022-10-13T12:16:03.194Z,16.93
2022-10-13T12:18:34.142Z,16.38
2022-10-13T12:21:04.163Z,19.90
2022-10-13T12:23:33.429Z,16.40
2022-10-13T12:26:01.569Z,15.68
2022-10-13T12:28:31.040Z,15.50
2022-10-13T12:31:01.332Z,17.50
2022-10-13T12:33:31.143Z,19.58
2022-10-13T12:36:12.713Z,18.43
2022-10-13T12:38:45.037Z,18.42
2022-10-13T12:41:12.959Z,19.77
2022-10-13T12:43:40.934Z,18.20
2022-10-13T12:46:09.970Z,19.30
2022-10-13T12:48:38.422Z,22.30
2022-10-13T12:51:14.138Z,19.10
2022-10-13T12:53:41.917Z,18.95
2022-10-13T12:56:19.910Z,20.83
2022-10-13T12:58:47.616Z,26.60
2022-10-13T13:01:33.501Z,23.02
2022-10-13T13:04:03.222Z,21.15
2022-10-13T13:06:33.461Z,23.50
2022-10-13T13:09:08.711Z,22.23
2022-10-13T13:11:37.736Z,23.77
2022-10-13T13:14:25.467Z,23.92
2022-10-13T13:17:10.472Z,25.43
2022-10-13T13:19:38.324Z,24.23
2022-10-13T13:22:06.946Z,24.15
2022-10-13T13:24:40.303Z,25.30
2022-10-13T13:27:18.416Z,25.98
2022-10-13T13:29:46.363Z,23.85
2022-10-13T13:32:19.866Z,24.83
2022-10-13T13:34:48.030Z,27.77
2022-10-13T13:37:22.231Z,23.60
2022-10-13T13:39:50.075Z,22.67
2022-10-13T13:42:17.967Z,22.92
2022-10-13T13:44:45.686Z,27.58
2022-10-13T13:47:22.770Z,23.15
2022-10-13T13:49:51.902Z,27.38
2022-10-13T13:52:19.763Z,23.58
2022-10-13T13:54:47.460Z,22.30
2022-10-13T13:57:15.876Z,24.88
2022-10-13T13:59:44.002Z,26.93
2022-10-13T14:02:14.909Z,26.63
2022-10-13T14:04:44.430Z,25.80
2022-10-13T14:07:12.585Z,25.63
2022-10-13T14:09:40.330Z,25.63
2022-10-13T14:12:08.133Z,27.10
2022-10-13T14:14:35.881Z,23.17
2022-10-13T14:17:04.694Z,22.20
2022-10-13T14:19:32.801Z,24.50
2022-10-13T14:22:05.859Z,18.45
2022-10-13T14:24:36.208Z,21.13
2022-10-13T14:27:03.927Z,22.55
2022-10-13T14:29:31.767Z,21.10
2022-10-13T14:31:59.475Z,21.45
2022-10-13T14:34:27.544Z,23.27
2022-10-13T14:36:55.497Z,21.05
2022-10-13T14:39:24.670Z,19.88
2022-10-13T14:41:52.339Z,17.98
2022-10-13T14:44:20.248Z,17.40
2022-10-13T14:46:47.951Z,19.77
2022-10-13T14:49:15.737Z,21.38
2022-10-13T14:51:43.614Z,20.60
2022-10-13T14:54:11.393Z,18.00
2022-10-13T14:56:40.520Z,20.43
2022-10-13T14:59:08.772Z,20.27
2022-10-13T15:01:36.494Z,18.23
2022-10-13T15:04:04.675Z,18.88
2022-10-13T15:06:32.790Z,21.13
2022-10-13T15:09:02.438Z,21.98
2022-10-13T15:11:30.062Z,19.80
2022-10-13T15:13:59.097Z,23.67
2022-10-13T15:16:28.861Z,21.00
2022-10-13T15:18:57.091Z,21.88
2022-10-13T15:21:25.352Z,22.48
2022-10-13T15:23:53.036Z,22.17
2022-10-13T15:26:21.153Z,36.80
2022-10-13T15:28:51.142Z,35.47
2022-10-13T15:34:05.586Z,27.05
2022-10-13T15:36:33.185Z,24.27
2022-10-13T15:39:00.815Z,22.08
2022-10-13T15:41:28.447Z,24.88
2022-10-13T15:43:56.076Z,22.53
2022-10-13T15:46:24.280Z,24.48
2022-10-13T15:48:53.205Z,25.27
2022-10-13T15:51:24.132Z,25.58
2022-10-13T15:53:52.159Z,23.23
2022-10-13T15:56:19.886Z,29.10
2022-10-13T15:58:47.548Z,25.23
2022-10-13T16:01:15.294Z,21.02
2022-10-13T16:03:43.487Z,23.08
2022-10-13T16:06:13.087Z,24.88
2022-10-13T16:08:43.987Z,19.67
2022-10-13T16:11:12.914Z,21.83
2022-10-13T16:13:41.031Z,20.13
2022-10-13T16:16:08.922Z,20.90
2022-10-13T16:18:38.427Z,21.92
2022-10-13T16:21:12.347Z,21.35
2022-10-13T16:23:45.424Z,19.17
2022-10-13T16:26:13.186Z,21.33
2022-10-13T16:28:41.126Z,19.65
2022-10-13T16:31:12.608Z,22.10
2022-10-13T16:33:41.083Z,22.48
2022-10-13T16:36:10.597Z,25.15
2022-10-13T16:38:38.224Z,23.13
2022-10-13T16:41:09.319Z,30.88
2022-10-13T16:43:37.046Z,23.90
2022-10-13T16:46:06.951Z,27.30
2022-10-13T16:48:34.887Z,23.60
2022-10-13T16:51:06.535Z,21.95
2022-10-13T16:53:34.555Z,22.70
2022-10-13T16:56:02.240Z,23.42
2022-10-13T16:58:31.351Z,24.02
2022-10-13T17:01:03.988Z,25.27
2022-10-13T17:03:31.728Z,26.08
2022-10-13T17:05:59.399Z,22.77
2022-10-13T17:08:27.147Z,23.15
2022-10-13T17:10:58.233Z,26.42
2022-10-13T17:13:26.178Z,28.52
2022-10-13T17:15:57.074Z,26.55
2022-10-13T17:18:25.761Z,25.38
2022-10-13T17:20:54.350Z,28.57
2022-10-13T17:23:22.278Z,25.77
2022-10-13T17:25:50.148Z,34.92
2022-10-13T17:28:18.189Z,26.10
2022-10-13T17:30:46.190Z,32.33
2022-10-13T17:33:15.301Z,29.10
2022-10-13T17:35:42.968Z,33.70
2022-10-13T17:38:10.718Z,38.20
2022-10-13T17:40:38.474Z,35.97
2022-10-13T17:43:06.089Z,49.40
2022-10-13T17:45:33.719Z,35.42
2022-10-13T17:48:01.722Z,28.27
2022-10-13T17:50:30.741Z,28.13
2022-10-13T17:52:58.402Z,25.20
2022-10-13T17:55:26.053Z,26.17
2022-10-13T17:57:53.673Z,27.27
2022-10-13T18:00:21.595Z,31.17
2022-10-13T18:02:49.388Z,30.67
2022-10-13T18:05:17.174Z,31.30
2022-10-13T18:07:46.202Z,28.88
2022-10-13T18:12:08.210Z,26.20
2022-10-13T18:14:35.946Z,25.67
2022-10-13T18:17:03.612Z,25.80
2022-10-13T18:19:31.228Z,27.98
2022-10-13T18:21:58.908Z,28.17
2022-10-13T18:24:26.775Z,24.48
2022-10-13T18:26:54.545Z,26.85
2022-10-13T18:29:23.724Z,26.02
2022-10-13T18:31:51.357Z,31.80
2022-10-13T18:34:19.169Z,30.65
2022-10-13T18:36:48.351Z,30.00
2022-10-13T18:39:18.034Z,28.95
2022-10-13T18:41:46.025Z,27.25
2022-10-13T18:44:13.876Z,30.77
2022-10-13T18:46:43.042Z,35.20
2022-10-13T18:49:13.487Z,33.25
2022-10-13T18:51:41.304Z,32.03
2022-10-13T18:54:15.987Z,30.60
2022-10-13T18:56:43.676Z,29.97
2022-10-13T18:59:12.321Z,30.80
2022-10-13T19:01:42.804Z,30.53
2022-10-13T19:04:12.875Z,29.27
2022-10-13T19:06:41.091Z,29.52
2022-10-13T19:09:11.125Z,33.38
2022-10-13T19:11:38.898Z,34.20
2022-10-13T19:14:07.590Z,30.98
2022-10-13T19:16:37.293Z,28.75
2022-10-13T19:19:07.947Z,38.90
2022-10-13T19:21:36.008Z,33.40
2022-10-13T19:24:04.005Z,34.22
2022-10-13T19:26:33.859Z,34.20
2022-10-13T19:29:03.132Z,31.80
2022-10-13T19:31:31.968Z,33.90
2022-10-13T19:34:00.407Z,39.13
2022-10-13T19:36:31.657Z,37.35
2022-10-13T19:38:59.994Z,41.20
2022-10-13T19:41:29.661Z,36.60
2022-10-13T19:43:57.832Z,41.58
2022-10-13T19:46:25.480Z,38.10
2022-10-13T19:48:53.187Z,34.35
2022-10-13T19:51:20.913Z,34.38
2022-10-13T19:53:50.023Z,31.43
2022-10-13T19:56:25.442Z,35.47
2022-10-13T19:58:54.159Z,33.22
2022-10-13T20:01:21.976Z,33.65
2022-10-13T20:03:49.952Z,33.70
2022-10-13T20:06:18.367Z,36.35
2022-10-13T20:08:46.274Z,39.90
2022-10-13T20:11:22.184Z,35.17
2022-10-13T20:13:51.561Z,33.00
2022-10-13T20:16:20.913Z,31.02
2022-10-13T20:18:52.426Z,34.88
2022-10-13T20:21:20.129Z,34.83
2022-10-13T20:23:47.887Z,40.85
2022-10-13T20:26:17.036Z,39.97
2022-10-13T20:28:46.138Z,34.35
2022-10-13T20:31:14.666Z,41.50
2022-10-13T20:33:42.593Z,36.50
2022-10-13T20:36:13.055Z,44.25
2022-10-13T20:38:40.775Z,41.22
2022-10-13T20:41:10.427Z,46.58
2022-10-13T20:43:39.481Z,32.92
2022-10-13T20:46:08.846Z,37.03
2022-10-13T20:48:58.199Z,40.75
2022-10-13T20:51:26.682Z,37.83
2022-10-13T20:53:54.362Z,38.45
2022-10-13T20:56:23.594Z,39.28
2022-10-13T20:58:53.132Z,45.38
2022-10-13T21:01:22.509Z,41.08
2022-10-13T21:03:52.972Z,40.45
2022-10-13T21:06:20.876Z,39.70
2022-10-13T21:08:49.145Z,34.97
2022-10-13T21:11:18.132Z,38.72
2022-10-13T21:13:46.047Z,36.50
2022-10-13T21:16:17.139Z,40.17
2022-10-13T21:18:45.728Z,35.38
2022-10-13T21:21:13.443Z,36.75
2022-10-13T21:23:41.131Z,34.17
2022-10-13T21:26:10.211Z,39.88
2022-10-13T21:28:38.844Z,37.83
2022-10-13T21:31:08.209Z,38.28
2022-10-13T21:33:38.395Z,33.42
2022-10-13T21:36:07.638Z,42.17
2022-10-13T21:38:35.567Z,36.75
2022-10-13T21:41:05.036Z,34.40
2022-10-13T21:43:32.698Z,38.97
2022-10-13T21:46:09.381Z,42.10
2022-10-13T21:48:38.439Z,38.17
2022-10-13T21:51:16.999Z,40.38
2022-10-13T21:53:48.057Z,36.93
2022-10-13T21:56:15.779Z,43.30
2022-10-13T21:58:43.546Z,44.38
2022-10-13T22:01:11.575Z,41.63
2022-10-13T22:03:41.645Z,46.90
2022-10-13T22:06:15.882Z,41.80
2022-10-13T22:08:47.542Z,48.08
2022-10-13T22:11:15.973Z,44.10
2022-10-13T22:13:43.686Z,42.40
2022-10-13T22:16:14.217Z,49.00
2022-10-13T22:18:43.559Z,46.92
2022-10-13T22:21:13.587Z,47.65
2022-10-13T22:23:41.977Z,49.45
2022-10-13T22:26:10.323Z,51.03
2022-10-13T22:28:38.264Z,51.58
2022-10-13T22:31:06.627Z,56.13
2022-10-13T22:33:36.346Z,58.80
2022-10-13T22:36:09.006Z,54.83
2022-10-13T22:38:36.942Z,57.08
2022-10-13T22:41:05.742Z,63.73
2022-10-13T22:43:33.458Z,64.00
2022-10-13T22:46:02.457Z,67.88
2022-10-13T22:48:30.238Z,65.77
2022-10-13T22:50:58.059Z,68.60
2022-10-13T22:53:27.183Z,75.78
2022-10-13T22:55:54.874Z,64.65
2022-10-13T22:58:22.627Z,62.85
2022-10-13T23:00:50.253Z,66.93
2022-10-13T23:03:18.299Z,72.70
2022-10-13T23:05:48.476Z,65.90
2022-10-13T23:08:16.257Z,61.30
2022-10-13T23:10:45.582Z,61.08
2022-10-13T23:13:13.298Z,65.97
2022-10-13T23:15:40.974Z,62.90
2022-10-13T23:18:08.663Z,62.78
2022-10-13T23:20:40.321Z,66.90
2022-10-13T23:23:08.057Z,65.30
2022-10-13T23:25:36.247Z,64.47
2022-10-13T23:28:06.110Z,60.55
2022-10-13T23:30:33.746Z,53.53
2022-10-13T23:33:01.449Z,64.63
2022-10-13T23:35:29.172Z,66.17
2022-10-13T23:37:56.904Z,61.65
2022-10-13T23:40:24.555Z,71.57
2022-10-13T23:42:52.464Z,59.05
2022-10-13T23:45:21.560Z,53.47
2022-10-13T23:47:49.444Z,61.92
2022-10-13T23:50:17.627Z,56.73
2022-10-13T23:52:45.631Z,53.77
2022-10-13T23:55:13.349Z,54.55
2022-10-13T23:57:41.214Z,52.25
